KBIF/BIF METAR and TAF weather

Enter ICAO airport designator
Station Type Date Time Source
KBIF METAR 2018/12/10 16:58 UTC NOAA

KBIF 101658Z AUTO 34009KT 10SM CLR 06/M01 A3039 RMK AO2 SLP277 T00641012 $


Station Type Date Time Source
KBIF Decoded METAR 2018/12/10 16:58 UTC NOAA

Biggs Army Air Field / Ft. Bliss, TX, United States (KBIF) 31-51N 106-23W
Dec 10, 2018 - 11:58 AM EST / 2018.12.10 1658 UTC
Wind: from the NNW (340 degrees) at 10 MPH (9 KT):0
Visibility: 10 mile(s):0
Sky conditions: clear
Temperature: 43.5 F (6.4 C)
Dew Point: 29.8 F (-1.2 C)
Relative Humidity: 58%
Pressure (altimeter): 30.39 in. Hg (1029 hPa)
ob: KBIF 101658Z AUTO 34009KT 10SM CLR 06/M01 A3039 RMK AO2 SLP277 T00641012
cycle: 17

Station Type Date Time Source
KBIF TAF 2018/12/10 14:11 UTC NOAA

TAF KBIF 101400Z 1014/1120 VRB06KT 9000 BR FEW290 QNH3032INS
BECMG 1017/1018 11006KT 9999 NSW FEW220 QNH3026INS
BECMG 1117/1118 18006KT 9999 FEW003 QNH3025INS TX11/1021Z TNM01/1014Z


Example: see airport list